createdAt,value
2023-03-19T00:00:40.949Z,23.45
2023-03-19T00:03:08.676Z,18.33
2023-03-19T00:05:36.057Z,21.48
2023-03-19T00:08:03.414Z,17.23
2023-03-19T00:10:30.651Z,17.77
2023-03-19T00:12:57.864Z,17.80
2023-03-19T00:15:25.136Z,22.88
2023-03-19T00:17:52.568Z,17.48
2023-03-19T00:20:20.619Z,21.80
2023-03-19T00:22:47.817Z,15.77
2023-03-19T00:25:15.115Z,17.67
2023-03-19T00:27:42.871Z,20.92
2023-03-19T00:30:11.389Z,16.92
2023-03-19T00:32:39.540Z,17.70
2023-03-19T00:35:07.193Z,19.88
2023-03-19T00:37:34.844Z,14.27
2023-03-19T00:40:02.377Z,15.85
2023-03-19T00:42:29.585Z,15.82
2023-03-19T00:44:56.928Z,20.10
2023-03-19T00:47:24.493Z,18.60
2023-03-19T00:49:51.986Z,19.85
2023-03-19T00:52:19.225Z,20.00
2023-03-19T00:54:46.684Z,21.63
2023-03-19T00:57:14.251Z,22.73
2023-03-19T00:59:41.618Z,22.48
2023-03-19T01:02:08.871Z,19.48
2023-03-19T01:04:36.354Z,24.98
2023-03-19T01:07:03.687Z,23.02
2023-03-19T01:09:31.197Z,19.20
2023-03-19T01:11:58.908Z,20.88
2023-03-19T01:14:26.213Z,22.73
2023-03-19T01:16:53.777Z,22.25
2023-03-19T01:19:21.264Z,23.52
2023-03-19T01:21:49.639Z,23.25
2023-03-19T01:24:17.327Z,19.67
2023-03-19T01:26:44.671Z,21.60
2023-03-19T01:29:11.902Z,20.33
2023-03-19T01:31:39.220Z,23.90
2023-03-19T01:34:06.631Z,23.73
2023-03-19T01:36:34.124Z,24.05
2023-03-19T01:39:01.717Z,25.77
2023-03-19T01:41:28.929Z,20.50
2023-03-19T01:43:56.137Z,21.50
2023-03-19T01:46:27.894Z,23.00
2023-03-19T01:48:59.874Z,21.85
2023-03-19T01:51:28.825Z,25.17
2023-03-19T01:54:04.967Z,21.48
2023-03-19T01:56:37.238Z,25.13
2023-03-19T01:59:09.775Z,25.97
2023-03-19T02:01:41.332Z,21.98
2023-03-19T02:04:08.660Z,25.30
2023-03-19T02:06:37.793Z,24.33
2023-03-19T02:09:05.090Z,20.60
2023-03-19T02:11:32.557Z,20.42
2023-03-19T02:13:59.776Z,26.02
2023-03-19T02:16:27.437Z,22.13
2023-03-19T02:18:54.678Z,25.10
2023-03-19T02:21:22.176Z,21.88
2023-03-19T02:23:58.421Z,20.65
2023-03-19T02:29:02.194Z,25.08
2023-03-19T02:31:29.469Z,25.20
2023-03-19T02:34:27.548Z,20.75
2023-03-19T02:37:16.058Z,23.63
2023-03-19T02:40:05.585Z,23.10
2023-03-19T02:42:32.831Z,21.63
2023-03-19T02:45:00.067Z,23.10
2023-03-19T02:47:27.815Z,21.30
2023-03-19T02:49:55.633Z,21.85
2023-03-19T02:52:22.855Z,23.23
2023-03-19T02:54:50.214Z,19.63
2023-03-19T02:57:17.478Z,22.23
2023-03-19T02:59:44.692Z,20.58
2023-03-19T03:02:12.227Z,21.52
2023-03-19T03:04:39.516Z,22.67
2023-03-19T03:07:07.506Z,19.27
2023-03-19T03:09:35.004Z,21.42
2023-03-19T03:12:02.239Z,24.40
2023-03-19T03:14:29.796Z,20.35
2023-03-19T03:16:57.489Z,22.77
2023-03-19T03:19:24.834Z,23.50
2023-03-19T03:21:52.116Z,24.65
2023-03-19T03:24:19.462Z,23.48
2023-03-19T03:26:46.741Z,24.35
2023-03-19T03:29:14.000Z,22.70
2023-03-19T03:31:41.526Z,21.02
2023-03-19T03:34:08.890Z,25.02
2023-03-19T03:36:36.934Z,25.38
2023-03-19T03:39:04.741Z,23.33
2023-03-19T03:41:31.957Z,23.60
2023-03-19T03:43:58.787Z,25.23
2023-03-19T03:46:26.029Z,22.48
2023-03-19T03:48:53.292Z,24.50
2023-03-19T03:51:20.632Z,23.73
2023-03-19T03:53:47.890Z,25.67
2023-03-19T03:56:15.175Z,25.50
2023-03-19T03:58:42.443Z,25.40
2023-03-19T04:01:14.830Z,24.05
2023-03-19T04:03:42.033Z,26.00
2023-03-19T04:06:14.650Z,22.33
2023-03-19T04:08:41.506Z,28.13
2023-03-19T04:11:09.109Z,28.38
2023-03-19T04:13:37.181Z,23.00
2023-03-19T04:16:08.913Z,23.33
2023-03-19T04:18:36.830Z,19.88
2023-03-19T04:21:04.850Z,25.05
2023-03-19T04:23:31.715Z,22.30
2023-03-19T04:26:03.325Z,21.98
2023-03-19T04:28:31.310Z,17.30
2023-03-19T04:31:05.856Z,18.20
2023-03-19T04:33:33.404Z,22.80
2023-03-19T04:36:00.713Z,21.90
2023-03-19T04:38:28.001Z,20.38
2023-03-19T04:40:56.229Z,21.52
2023-03-19T04:43:24.223Z,21.65
2023-03-19T04:45:51.966Z,19.73
2023-03-19T04:48:19.493Z,21.45
2023-03-19T04:50:47.303Z,23.80
2023-03-19T04:53:15.517Z,18.65
2023-03-19T04:55:42.749Z,19.80
2023-03-19T04:58:10.013Z,16.08
2023-03-19T05:00:37.328Z,18.90
2023-03-19T05:03:04.771Z,19.33
2023-03-19T05:05:32.058Z,18.05
2023-03-19T05:07:59.504Z,18.30
2023-03-19T05:10:26.775Z,23.10
2023-03-19T05:12:53.970Z,18.60
2023-03-19T05:15:21.220Z,16.67
2023-03-19T05:17:48.828Z,16.70
2023-03-19T05:20:16.155Z,18.25
2023-03-19T05:22:43.456Z,23.63
2023-03-19T05:25:10.668Z,16.33
2023-03-19T05:27:37.892Z,18.80
2023-03-19T05:30:06.138Z,14.55
2023-03-19T05:32:34.077Z,13.10
2023-03-19T05:35:01.350Z,10.50
2023-03-19T05:37:28.608Z,9.65
2023-03-19T05:39:56.044Z,15.95
2023-03-19T05:42:23.265Z,15.95
2023-03-19T05:44:50.547Z,14.40
2023-03-19T05:47:18.072Z,14.88
2023-03-19T05:49:45.311Z,18.95
2023-03-19T05:52:12.625Z,19.75
2023-03-19T05:54:40.106Z,19.23
2023-03-19T05:57:07.727Z,19.35
2023-03-19T05:59:34.910Z,13.27
2023-03-19T06:02:02.141Z,17.90
2023-03-19T06:04:29.400Z,19.35
2023-03-19T06:06:57.257Z,17.58
2023-03-19T06:09:24.475Z,14.25
2023-03-19T06:11:51.746Z,18.77
2023-03-19T06:14:19.257Z,17.73
2023-03-19T06:16:46.658Z,16.13
2023-03-19T06:19:14.062Z,15.23
2023-03-19T06:21:41.614Z,16.45
2023-03-19T06:24:08.939Z,19.40
2023-03-19T06:26:37.379Z,18.10
2023-03-19T06:29:05.001Z,15.65
2023-03-19T06:31:32.398Z,15.30
2023-03-19T06:33:59.644Z,15.07
2023-03-19T06:36:27.141Z,14.48
2023-03-19T06:38:54.393Z,15.75
2023-03-19T06:41:21.967Z,16.15
2023-03-19T06:43:49.473Z,14.52
2023-03-19T06:46:16.797Z,13.48
2023-03-19T06:48:44.063Z,13.80
2023-03-19T06:51:11.350Z,12.60
2023-03-19T06:53:38.760Z,15.30
2023-03-19T06:56:06.160Z,14.50
2023-03-19T06:58:33.438Z,13.23
2023-03-19T07:01:00.743Z,14.15
2023-03-19T07:03:27.996Z,15.63
2023-03-19T07:05:55.476Z,12.65
2023-03-19T07:08:22.442Z,15.43
2023-03-19T07:10:49.232Z,15.00
2023-03-19T07:13:16.273Z,12.48
2023-03-19T07:15:43.064Z,11.75
2023-03-19T07:18:10.052Z,14.40
2023-03-19T07:20:37.389Z,14.93
2023-03-19T07:23:04.259Z,13.18
2023-03-19T07:25:31.307Z,13.40
2023-03-19T07:27:58.179Z,18.10
2023-03-19T07:30:25.558Z,14.80
2023-03-19T07:32:52.385Z,14.65
2023-03-19T07:35:19.717Z,13.82
2023-03-19T07:37:46.853Z,15.93
2023-03-19T07:40:14.152Z,13.98
2023-03-19T07:42:42.333Z,15.68
2023-03-19T07:45:11.736Z,14.63
2023-03-19T07:47:40.080Z,14.07
2023-03-19T07:50:07.758Z,14.13
2023-03-19T07:52:34.960Z,12.95
2023-03-19T07:55:01.792Z,15.20
2023-03-19T07:57:29.070Z,13.02
2023-03-19T07:59:56.355Z,12.20
2023-03-19T08:02:23.854Z,15.45
2023-03-19T08:04:51.675Z,14.52
2023-03-19T08:07:18.545Z,17.00
2023-03-19T08:09:45.343Z,14.38
2023-03-19T08:12:12.591Z,13.75
2023-03-19T08:14:39.905Z,13.85
2023-03-19T08:17:08.297Z,12.57
2023-03-19T08:19:35.612Z,14.52
2023-03-19T08:22:02.500Z,12.45
2023-03-19T08:24:29.732Z,18.40
2023-03-19T08:26:57.026Z,13.18
2023-03-19T08:29:26.425Z,13.60
2023-03-19T08:31:54.688Z,14.10
2023-03-19T08:34:22.067Z,12.15
2023-03-19T08:36:49.453Z,12.85
2023-03-19T08:39:16.521Z,14.85
2023-03-19T08:41:43.391Z,16.10
2023-03-19T08:44:10.755Z,13.13
2023-03-19T08:46:37.884Z,13.00
2023-03-19T08:49:05.178Z,11.75
2023-03-19T08:51:32.710Z,12.68
2023-03-19T08:54:00.438Z,12.88
2023-03-19T08:56:28.252Z,17.88
2023-03-19T08:58:57.057Z,13.27
2023-03-19T09:01:24.483Z,15.05
2023-03-19T09:03:51.437Z,15.93
2023-03-19T09:06:18.429Z,13.20
2023-03-19T09:08:46.215Z,15.30
2023-03-19T09:11:14.634Z,14.38
2023-03-19T09:13:41.900Z,15.20
2023-03-19T09:16:08.823Z,14.50
2023-03-19T09:18:36.354Z,17.08
2023-03-19T09:21:04.058Z,13.48
2023-03-19T09:23:31.314Z,14.65
2023-03-19T09:25:58.646Z,15.38
2023-03-19T09:28:25.858Z,14.70
2023-03-19T09:30:53.229Z,14.35
2023-03-19T09:33:21.379Z,15.48
2023-03-19T09:35:53.023Z,13.40
2023-03-19T09:38:21.287Z,44.67
2023-03-19T09:41:09.168Z,16.35
2023-03-19T09:43:49.947Z,17.83
2023-03-19T09:46:23.078Z,14.82
2023-03-19T09:49:03.836Z,16.20
2023-03-19T09:51:44.915Z,14.95
2023-03-19T09:54:24.945Z,13.48
2023-03-19T09:56:52.184Z,16.67
2023-03-19T09:59:21.659Z,13.70
2023-03-19T10:01:58.774Z,14.15
2023-03-19T10:04:43.542Z,15.80
2023-03-19T10:07:23.274Z,15.75
2023-03-19T10:09:56.841Z,12.70
2023-03-19T10:12:52.692Z,15.52
2023-03-19T10:15:29.041Z,14.35
2023-03-19T10:18:01.553Z,13.38
2023-03-19T10:20:41.672Z,13.38
2023-03-19T10:23:43.857Z,14.38
2023-03-19T10:26:19.764Z,12.88
2023-03-19T10:29:02.436Z,15.48
2023-03-19T10:31:41.163Z,14.98
2023-03-19T10:34:33.750Z,15.02
2023-03-19T10:37:01.451Z,15.45
2023-03-19T10:39:28.784Z,16.48
2023-03-19T10:42:01.794Z,13.77
2023-03-19T10:44:32.157Z,14.60
2023-03-19T10:47:09.028Z,20.33
2023-03-19T10:49:36.631Z,14.63
2023-03-19T10:52:04.453Z,16.45
2023-03-19T10:54:31.372Z,15.93
2023-03-19T10:57:01.282Z,15.02
2023-03-19T10:59:31.281Z,16.00
2023-03-19T11:02:02.094Z,16.67
2023-03-19T11:04:29.998Z,15.50
2023-03-19T11:07:04.093Z,12.32
2023-03-19T11:09:39.820Z,13.60
2023-03-19T11:12:19.198Z,14.63
2023-03-19T11:14:49.365Z,16.83
2023-03-19T11:17:37.797Z,18.50
2023-03-19T11:20:27.552Z,16.65
2023-03-19T11:22:56.521Z,14.73
2023-03-19T11:25:28.154Z,14.15
2023-03-19T11:28:01.512Z,13.98
2023-03-19T11:30:59.280Z,17.48
2023-03-19T11:33:46.123Z,14.38
2023-03-19T11:36:32.771Z,12.10
2023-03-19T11:39:21.223Z,16.40
2023-03-19T11:42:20.001Z,15.30
2023-03-19T11:45:09.084Z,16.67
2023-03-19T11:47:58.679Z,17.10
2023-03-19T11:50:51.234Z,20.95
2023-03-19T11:53:29.718Z,19.43
2023-03-19T11:56:15.273Z,15.20
2023-03-19T11:58:48.075Z,16.75
2023-03-19T12:01:53.737Z,16.40
2023-03-19T12:04:30.304Z,17.70
2023-03-19T12:07:10.871Z,15.75
2023-03-19T12:09:38.133Z,15.27
2023-03-19T12:12:30.966Z,18.00
2023-03-19T12:15:05.194Z,17.67
2023-03-19T12:18:01.053Z,15.98
2023-03-19T12:20:55.208Z,15.40
2023-03-19T12:23:44.513Z,16.00
2023-03-19T12:26:37.206Z,18.40
2023-03-19T12:29:18.902Z,17.02
2023-03-19T12:32:17.104Z,18.13
2023-03-19T12:34:55.166Z,15.52
2023-03-19T12:37:42.474Z,20.92
2023-03-19T12:40:14.606Z,22.55
2023-03-19T12:42:42.532Z,15.10
2023-03-19T12:45:32.786Z,17.05
2023-03-19T12:48:28.655Z,20.27
2023-03-19T12:51:02.075Z,16.05
2023-03-19T12:53:33.478Z,15.73
2023-03-19T12:56:08.373Z,17.48
2023-03-19T12:59:04.072Z,23.50
2023-03-19T13:01:37.392Z,18.20
2023-03-19T13:04:04.948Z,18.63
2023-03-19T13:06:41.438Z,16.58
2023-03-19T13:09:40.769Z,17.10
2023-03-19T13:12:15.417Z,16.40
2023-03-19T13:15:12.585Z,14.15
2023-03-19T13:18:03.937Z,15.07
2023-03-19T13:20:45.149Z,16.55
2023-03-19T13:23:18.104Z,21.02
2023-03-19T13:25:49.219Z,19.75
2023-03-19T13:28:30.741Z,19.45
2023-03-19T13:31:05.336Z,19.00
2023-03-19T13:33:35.211Z,19.92
2023-03-19T13:36:05.284Z,17.88
2023-03-19T13:38:49.039Z,16.35
2023-03-19T13:41:39.177Z,18.65
2023-03-19T13:44:39.215Z,18.55
2023-03-19T13:47:32.300Z,18.08
2023-03-19T13:50:20.747Z,18.00
2023-03-19T13:52:51.701Z,17.23
2023-03-19T13:55:30.442Z,17.42
2023-03-19T13:58:12.361Z,18.45
2023-03-19T14:00:42.995Z,17.67
2023-03-19T14:03:30.868Z,20.02
2023-03-19T14:05:59.765Z,18.25
2023-03-19T14:08:42.154Z,17.35
2023-03-19T14:11:09.754Z,16.48
2023-03-19T14:13:48.216Z,18.85
2023-03-19T14:16:24.849Z,19.50
2023-03-19T14:18:55.969Z,19.25
2023-03-19T14:21:47.380Z,18.13
2023-03-19T14:24:58.789Z,14.90
2023-03-19T14:27:33.408Z,17.67
2023-03-19T14:30:15.069Z,19.05
2023-03-19T14:32:43.344Z,17.50
2023-03-19T14:35:16.992Z,17.55
2023-03-19T14:37:49.287Z,15.35
2023-03-19T14:40:27.065Z,17.05
2023-03-19T14:42:58.338Z,17.63
2023-03-19T14:45:43.261Z,13.77
2023-03-19T14:48:33.384Z,14.65
2023-03-19T14:51:21.152Z,13.07
2023-03-19T14:54:01.683Z,15.77
2023-03-19T14:56:34.012Z,14.25
2023-03-19T14:59:04.605Z,14.43
2023-03-19T15:01:33.590Z,22.08
2023-03-19T15:04:07.946Z,15.48
2023-03-19T15:06:38.833Z,13.02
2023-03-19T15:09:32.385Z,17.77
2023-03-19T15:12:17.257Z,15.27
2023-03-19T15:14:53.083Z,17.55
2023-03-19T15:17:28.694Z,17.75
2023-03-19T15:19:58.429Z,18.02
2023-03-19T15:22:34.531Z,15.48
2023-03-19T15:25:09.986Z,13.38
2023-03-19T15:27:37.459Z,15.30
2023-03-19T15:30:19.252Z,18.80
2023-03-19T15:32:56.769Z,16.90
2023-03-19T15:35:36.460Z,16.77
2023-03-19T15:38:09.496Z,15.60
2023-03-19T15:40:38.075Z,17.05
2023-03-19T15:43:06.170Z,17.88
2023-03-19T15:45:34.258Z,15.35
2023-03-19T15:48:17.511Z,17.33
2023-03-19T15:50:47.586Z,25.73
2023-03-19T15:53:22.338Z,16.73
2023-03-19T15:55:52.196Z,19.55
2023-03-19T15:58:26.179Z,24.20
2023-03-19T16:00:54.536Z,15.85
2023-03-19T16:03:28.899Z,15.55
2023-03-19T16:06:27.241Z,19.90
2023-03-19T16:08:56.993Z,15.57
2023-03-19T16:11:34.409Z,17.52
2023-03-19T16:14:27.410Z,19.92
2023-03-19T16:17:02.337Z,25.30
2023-03-19T16:19:29.570Z,21.42
2023-03-19T16:21:57.009Z,20.02
2023-03-19T16:24:39.185Z,20.35
2023-03-19T16:27:26.112Z,16.90
2023-03-19T16:29:58.626Z,18.48
2023-03-19T16:32:27.586Z,19.02
2023-03-19T16:34:57.120Z,18.08
2023-03-19T16:37:45.558Z,19.40
2023-03-19T16:40:13.051Z,20.15
2023-03-19T16:43:06.293Z,21.00
2023-03-19T16:45:35.232Z,26.92
2023-03-19T16:48:03.589Z,28.40
2023-03-19T16:50:33.592Z,28.15
2023-03-19T16:53:02.867Z,22.42
2023-03-19T16:55:35.635Z,25.08
2023-03-19T16:58:12.114Z,28.45
2023-03-19T17:00:39.559Z,25.83
2023-03-19T17:03:32.952Z,23.92
2023-03-19T17:05:59.829Z,24.27
2023-03-19T17:08:27.103Z,29.20
2023-03-19T17:10:54.664Z,25.10
2023-03-19T17:13:28.515Z,31.10
2023-03-19T17:15:58.815Z,28.13
2023-03-19T17:18:30.274Z,29.50
2023-03-19T17:21:05.905Z,31.13
2023-03-19T17:23:35.058Z,29.95
2023-03-19T17:26:03.219Z,32.35
2023-03-19T17:28:32.463Z,24.40
2023-03-19T17:30:59.818Z,25.98
2023-03-19T17:33:30.376Z,31.85
2023-03-19T17:35:59.008Z,30.30
2023-03-19T17:38:44.064Z,35.20
2023-03-19T17:41:19.917Z,34.13
2023-03-19T17:43:47.664Z,36.30
2023-03-19T17:46:21.488Z,34.90
2023-03-19T17:48:49.986Z,32.50
2023-03-19T17:51:17.298Z,36.33
2023-03-19T17:53:48.590Z,39.97
2023-03-19T17:56:21.754Z,38.13
2023-03-19T18:01:21.197Z,40.75
2023-03-19T18:03:53.475Z,43.30
2023-03-19T18:06:26.633Z,42.70
2023-03-19T18:08:53.872Z,47.17
2023-03-19T18:11:20.955Z,41.00
2023-03-19T18:13:48.218Z,53.85
2023-03-19T18:16:19.436Z,51.10
2023-03-19T18:18:46.432Z,46.50
2023-03-19T18:21:14.927Z,47.97
2023-03-19T18:23:43.142Z,52.20
2023-03-19T18:26:11.849Z,46.38
2023-03-19T18:28:39.584Z,46.72
2023-03-19T18:31:16.538Z,50.28
2023-03-19T18:33:47.440Z,45.78
2023-03-19T18:36:27.923Z,52.58
2023-03-19T18:38:55.821Z,46.28
2023-03-19T18:41:25.074Z,62.65
2023-03-19T18:43:52.258Z,53.03
2023-03-19T18:46:30.775Z,63.30
2023-03-19T18:49:02.835Z,53.05
2023-03-19T18:51:30.145Z,58.67
2023-03-19T18:53:57.678Z,57.00
2023-03-19T18:56:30.562Z,55.70
2023-03-19T18:58:59.061Z,60.08
2023-03-19T19:01:27.120Z,67.57
2023-03-19T19:03:54.741Z,64.55
2023-03-19T19:06:36.557Z,64.97
2023-03-19T19:09:13.109Z,56.72
2023-03-19T19:11:41.778Z,56.38
2023-03-19T19:14:18.169Z,52.70
2023-03-19T19:16:45.875Z,53.30
2023-03-19T19:19:22.681Z,52.20
2023-03-19T19:21:50.880Z,57.40
2023-03-19T19:24:18.160Z,52.53
2023-03-19T19:26:47.987Z,53.65
2023-03-19T19:29:26.049Z,58.72
2023-03-19T19:31:54.408Z,50.53
2023-03-19T19:34:22.052Z,53.30
2023-03-19T19:36:50.980Z,63.90
2023-03-19T19:39:18.496Z,64.90
2023-03-19T19:41:46.595Z,57.60
2023-03-19T19:44:22.674Z,51.03
2023-03-19T19:46:53.346Z,53.90
2023-03-19T19:49:21.729Z,54.97
2023-03-19T19:51:48.623Z,56.28
2023-03-19T19:54:15.738Z,52.03
2023-03-19T19:56:42.793Z,56.60
2023-03-19T19:59:14.988Z,52.33
2023-03-19T20:01:42.348Z,59.13
2023-03-19T20:04:14.934Z,61.28
2023-03-19T20:06:42.199Z,70.13
2023-03-19T20:09:09.434Z,68.82
2023-03-19T20:11:36.674Z,70.28
2023-03-19T20:14:03.587Z,70.60
2023-03-19T20:16:30.923Z,62.10
2023-03-19T20:18:57.814Z,61.35
2023-03-19T20:21:25.036Z,66.93
2023-03-19T20:23:55.466Z,60.20
2023-03-19T20:26:24.739Z,65.20
2023-03-19T20:28:52.686Z,60.10
2023-03-19T20:31:29.667Z,64.22
2023-03-19T20:33:57.747Z,58.60
2023-03-19T20:36:25.186Z,58.67
2023-03-19T20:38:52.696Z,63.08
2023-03-19T20:41:22.877Z,55.88
2023-03-19T20:43:50.927Z,54.88
2023-03-19T20:46:20.465Z,60.22
2023-03-19T20:48:48.137Z,131.95
2023-03-19T20:51:24.707Z,100.35
2023-03-19T20:53:53.003Z,69.35
2023-03-19T20:56:22.607Z,59.80
2023-03-19T20:58:50.357Z,58.83
2023-03-19T21:01:18.739Z,52.67
2023-03-19T21:03:45.668Z,63.65
2023-03-19T21:06:13.098Z,63.55
2023-03-19T21:08:43.302Z,69.18
2023-03-19T21:11:21.207Z,67.43
2023-03-19T21:13:52.884Z,70.78
2023-03-19T21:16:25.798Z,62.55
2023-03-19T21:18:54.067Z,66.68
2023-03-19T21:21:36.269Z,55.63
2023-03-19T21:24:07.927Z,60.13
2023-03-19T21:26:39.953Z,61.83
2023-03-19T21:29:12.077Z,61.10
2023-03-19T21:31:39.350Z,53.35
2023-03-19T21:34:06.983Z,59.85
2023-03-19T21:36:33.841Z,60.08
2023-03-19T21:39:01.330Z,65.18
2023-03-19T21:41:33.388Z,65.35
2023-03-19T21:44:05.687Z,64.28
2023-03-19T21:46:33.844Z,64.43
2023-03-19T21:49:01.078Z,65.00
2023-03-19T21:51:29.554Z,70.05
2023-03-19T21:53:56.624Z,77.40
2023-03-19T21:56:39.724Z,72.28
2023-03-19T21:59:22.719Z,70.03
2023-03-19T22:01:49.994Z,75.78
2023-03-19T22:04:19.361Z,73.20
2023-03-19T22:06:46.921Z,69.40
2023-03-19T22:09:13.742Z,74.13
2023-03-19T22:11:42.558Z,134.13
2023-03-19T22:14:27.991Z,117.65
2023-03-19T22:16:56.476Z,93.65
2023-03-19T22:19:23.856Z,107.95
2023-03-19T22:21:52.256Z,194.27
2023-03-19T22:24:19.489Z,158.30
2023-03-19T22:26:49.563Z,133.85
2023-03-19T22:29:19.379Z,89.72
2023-03-19T22:31:49.394Z,134.38
2023-03-19T22:34:18.569Z,172.65
2023-03-19T22:36:46.184Z,190.98
2023-03-19T22:39:13.783Z,159.98
2023-03-19T22:41:45.984Z,280.83
2023-03-19T22:44:30.451Z,122.40
2023-03-19T22:47:00.256Z,211.48
2023-03-19T22:49:28.458Z,180.20
2023-03-19T22:51:56.595Z,142.82
2023-03-19T22:54:23.880Z,134.00
2023-03-19T22:56:51.137Z,86.65
2023-03-19T22:59:18.771Z,84.90
2023-03-19T23:01:46.825Z,93.90
2023-03-19T23:04:25.556Z,82.82
2023-03-19T23:06:54.205Z,89.63
2023-03-19T23:09:27.440Z,100.43
2023-03-19T23:14:29.777Z,101.78
2023-03-19T23:16:59.943Z,103.18
2023-03-19T23:19:30.551Z,97.03
2023-03-19T23:21:59.004Z,102.60
2023-03-19T23:24:27.938Z,116.25
2023-03-19T23:26:56.993Z,147.38
2023-03-19T23:29:29.912Z,150.23
2023-03-19T23:32:00.532Z,124.72
2023-03-19T23:34:33.498Z,130.15
2023-03-19T23:37:02.873Z,105.13
2023-03-19T23:39:30.061Z,123.10
2023-03-19T23:41:59.131Z,96.93
2023-03-19T23:44:29.193Z,102.28
2023-03-19T23:47:00.095Z,181.27
2023-03-19T23:49:33.478Z,323.77
2023-03-19T23:52:02.063Z,155.70
2023-03-19T23:54:31.693Z,136.02
2023-03-19T23:57:01.756Z,150.63
2023-03-19T23:59:33.428Z,138.18
